sensor_id;sensor_type;location;lat;lon;timestamp;pressure;altitude;pressure_sealevel;temperature;humidity
63395;BME280;49531;-34.520;150.798;2023-05-02T00:01:21;100585.53;;;20.37;46.00
63395;BME280;49531;-34.520;150.798;2023-05-02T00:03:49;100590.47;;;20.45;45.92
63395;BME280;49531;-34.520;150.798;2023-05-02T00:06:16;100580.16;;;20.42;46.13
63395;BME280;49531;-34.520;150.798;2023-05-02T00:08:44;100582.94;;;20.52;46.07
63395;BME280;49531;-34.520;150.798;2023-05-02T00:11:11;100593.03;;;20.62;45.76
63395;BME280;49531;-34.520;150.798;2023-05-02T00:13:39;100586.53;;;20.63;45.62
63395;BME280;49531;-34.520;150.798;2023-05-02T00:16:06;100587.09;;;20.70;45.49
63395;BME280;49531;-34.520;150.798;2023-05-02T00:18:34;100589.53;;;20.72;45.66
63395;BME280;49531;-34.520;150.798;2023-05-02T00:21:01;100585.22;;;20.76;45.57
63395;BME280;49531;-34.520;150.798;2023-05-02T00:23:28;100571.91;;;20.74;45.56
63395;BME280;49531;-34.520;150.798;2023-05-02T00:25:55;100574.09;;;20.72;45.50
63395;BME280;49531;-34.520;150.798;2023-05-02T00:28:22;100587.69;;;20.87;45.39
63395;BME280;49531;-34.520;150.798;2023-05-02T00:30:49;100569.25;;;20.89;45.53
63395;BME280;49531;-34.520;150.798;2023-05-02T00:33:16;100560.53;;;20.82;44.82
63395;BME280;49531;-34.520;150.798;2023-05-02T00:35:44;100567.38;;;20.95;45.22
63395;BME280;49531;-34.520;150.798;2023-05-02T00:38:11;100565.75;;;20.99;44.88
63395;BME280;49531;-34.520;150.798;2023-05-02T00:40:45;100550.53;;;20.98;44.66
63395;BME280;49531;-34.520;150.798;2023-05-02T00:43:14;100528.25;;;20.91;44.56
63395;BME280;49531;-34.520;150.798;2023-05-02T00:45:43;100566.34;;;21.11;44.63
63395;BME280;49531;-34.520;150.798;2023-05-02T00:48:12;100551.91;;;21.06;44.81
63395;BME280;49531;-34.520;150.798;2023-05-02T00:50:41;100546.78;;;21.09;44.81
63395;BME280;49531;-34.520;150.798;2023-05-02T00:53:09;100555.22;;;21.18;44.20
63395;BME280;49531;-34.520;150.798;2023-05-02T00:55:37;100544.59;;;21.11;44.54
63395;BME280;49531;-34.520;150.798;2023-05-02T00:58:10;100558.44;;;21.20;44.17
63395;BME280;49531;-34.520;150.798;2023-05-02T01:06:29;100558.22;;;21.26;44.66
63395;BME280;49531;-34.520;150.798;2023-05-02T01:12:00;100555.78;;;21.35;44.32
63395;BME280;49531;-34.520;150.798;2023-05-02T01:14:32;100546.00;;;21.29;44.37
63395;BME280;49531;-34.520;150.798;2023-05-02T01:17:04;100543.56;;;21.33;44.33
63395;BME280;49531;-34.520;150.798;2023-05-02T01:19:40;100541.13;;;21.36;44.31
63395;BME280;49531;-34.520;150.798;2023-05-02T01:22:09;100542.22;;;21.40;44.39
63395;BME280;49531;-34.520;150.798;2023-05-02T01:24:52;100544.13;;;21.40;44.47
63395;BME280;49531;-34.520;150.798;2023-05-02T01:27:42;100531.34;;;21.35;44.58
63395;BME280;49531;-34.520;150.798;2023-05-02T01:30:15;100541.94;;;21.42;44.54
63395;BME280;49531;-34.520;150.798;2023-05-02T01:32:46;100533.00;;;21.41;44.61
63395;BME280;49531;-34.520;150.798;2023-05-02T01:35:15;100534.06;;;21.45;44.67
63395;BME280;49531;-34.520;150.798;2023-05-02T01:37:46;100532.72;;;21.48;44.48
63395;BME280;49531;-34.520;150.798;2023-05-02T01:40:17;100529.47;;;21.51;44.67
63395;BME280;49531;-34.520;150.798;2023-05-02T01:42:49;100527.28;;;21.53;44.52
63395;BME280;49531;-34.520;150.798;2023-05-02T01:45:18;100530.00;;;21.53;44.72
63395;BME280;49531;-34.520;150.798;2023-05-02T01:47:47;100528.66;;;21.55;44.61
63395;BME280;49531;-34.520;150.798;2023-05-02T01:50:17;100516.16;;;21.49;44.51
63395;BME280;49531;-34.520;150.798;2023-05-02T01:52:47;100516.97;;;21.55;44.54
63395;BME280;49531;-34.520;150.798;2023-05-02T01:55:17;100517.22;;;21.53;44.46
63395;BME280;49531;-34.520;150.798;2023-05-02T01:57:46;100528.34;;;21.62;44.35
63395;BME280;49531;-34.520;150.798;2023-05-02T02:00:18;100522.09;;;21.61;44.31
63395;BME280;49531;-34.520;150.798;2023-05-02T02:02:47;100510.16;;;21.57;44.20
63395;BME280;49531;-34.520;150.798;2023-05-02T02:05:15;100516.13;;;21.59;44.15
63395;BME280;49531;-34.520;150.798;2023-05-02T02:07:44;100500.94;;;21.53;44.00
63395;BME280;49531;-34.520;150.798;2023-05-02T02:10:12;100507.97;;;21.59;43.92
63395;BME280;49531;-34.520;150.798;2023-05-02T02:12:48;100509.31;;;21.62;44.06
63395;BME280;49531;-34.520;150.798;2023-05-02T02:15:24;100503.09;;;21.56;44.21
63395;BME280;49531;-34.520;150.798;2023-05-02T02:17:59;100503.38;;;21.55;44.09
63395;BME280;49531;-34.520;150.798;2023-05-02T02:20:28;100488.97;;;21.54;44.01
63395;BME280;49531;-34.520;150.798;2023-05-02T02:22:59;100489.25;;;21.58;43.85
63395;BME280;49531;-34.520;150.798;2023-05-02T02:25:26;100490.56;;;21.60;43.40
63395;BME280;49531;-34.520;150.798;2023-05-02T02:27:54;100485.16;;;21.55;43.29
63395;BME280;49531;-34.520;150.798;2023-05-02T02:30:22;100487.34;;;21.53;43.40
63395;BME280;49531;-34.520;150.798;2023-05-02T02:32:50;100493.59;;;21.59;43.48
63395;BME280;49531;-34.520;150.798;2023-05-02T02:35:17;100496.03;;;21.55;43.84
63395;BME280;49531;-34.520;150.798;2023-05-02T02:37:53;100465.34;;;21.40;44.00
63395;BME280;49531;-34.520;150.798;2023-05-02T02:40:30;100474.28;;;21.55;43.80
63395;BME280;49531;-34.520;150.798;2023-05-02T02:43:19;100459.91;;;21.55;43.65
63395;BME280;49531;-34.520;150.798;2023-05-02T02:46:11;100460.94;;;21.64;43.38
63395;BME280;49531;-34.520;150.798;2023-05-02T02:51:52;100451.16;;;21.63;43.66
63395;BME280;49531;-34.520;150.798;2023-05-02T02:54:34;100441.66;;;21.60;43.88
63395;BME280;49531;-34.520;150.798;2023-05-02T02:57:16;100443.03;;;21.58;43.78
63395;BME280;49531;-34.520;150.798;2023-05-02T02:59:52;100444.38;;;21.60;44.03
63395;BME280;49531;-34.520;150.798;2023-05-02T03:02:27;100443.03;;;21.58;44.11
63395;BME280;49531;-34.520;150.798;2023-05-02T03:04:58;100438.94;;;21.66;43.72
63395;BME280;49531;-34.520;150.798;2023-05-02T03:07:28;100438.13;;;21.60;43.62
63395;BME280;49531;-34.520;150.798;2023-05-02T03:09:55;100441.66;;;21.60;43.66
63395;BME280;49531;-34.520;150.798;2023-05-02T03:12:23;100433.25;;;21.57;43.57
63395;BME280;49531;-34.520;150.798;2023-05-02T03:14:50;100438.69;;;21.52;43.71
63395;BME280;49531;-34.520;150.798;2023-05-02T03:17:17;100432.44;;;21.46;43.90
63395;BME280;49531;-34.520;150.798;2023-05-02T03:19:45;100434.91;;;21.53;43.92
63395;BME280;49531;-34.520;150.798;2023-05-02T03:22:12;100429.75;;;21.41;44.15
63395;BME280;49531;-34.520;150.798;2023-05-02T03:24:39;100435.16;;;21.51;44.09
63395;BME280;49531;-34.520;150.798;2023-05-02T03:27:07;100427.84;;;21.47;44.21
63395;BME280;49531;-34.520;150.798;2023-05-02T03:29:34;100428.09;;;21.50;44.16
63395;BME280;49531;-34.520;150.798;2023-05-02T03:32:01;100439.75;;;21.61;44.00
63395;BME280;49531;-34.520;150.798;2023-05-02T03:34:28;100444.94;;;21.57;44.29
63395;BME280;49531;-34.520;150.798;2023-05-02T03:36:55;100425.38;;;21.45;44.50
63395;BME280;49531;-34.520;150.798;2023-05-02T03:39:23;100435.97;;;21.42;44.71
63395;BME280;49531;-34.520;150.798;2023-05-02T03:41:50;100433.81;;;21.44;44.28
63395;BME280;49531;-34.520;150.798;2023-05-02T03:44:17;100443.31;;;21.51;44.46
63395;BME280;49531;-34.520;150.798;2023-05-02T03:46:45;100433.53;;;21.50;44.57
63395;BME280;49531;-34.520;150.798;2023-05-02T03:49:13;100418.06;;;21.41;44.40
63395;BME280;49531;-34.520;150.798;2023-05-02T03:51:40;100436.53;;;21.54;44.48
63395;BME280;49531;-34.520;150.798;2023-05-02T03:54:07;100431.09;;;21.54;44.28
63395;BME280;49531;-34.520;150.798;2023-05-02T03:56:35;100425.13;;;21.52;44.21
63395;BME280;49531;-34.520;150.798;2023-05-02T03:59:02;100416.97;;;21.52;44.32
63395;BME280;49531;-34.520;150.798;2023-05-02T04:01:29;100429.47;;;21.58;44.58
63395;BME280;49531;-34.520;150.798;2023-05-02T04:03:58;100419.94;;;21.55;44.43
63395;BME280;49531;-34.520;150.798;2023-05-02T04:06:25;100430.81;;;21.55;44.54
63395;BME280;49531;-34.520;150.798;2023-05-02T04:08:52;100416.97;;;21.47;44.43
63395;BME280;49531;-34.520;150.798;2023-05-02T04:11:19;100399.31;;;21.39;44.77
63395;BME280;49531;-34.520;150.798;2023-05-02T04:13:47;100418.84;;;21.51;44.68
63395;BME280;49531;-34.520;150.798;2023-05-02T04:16:14;100407.47;;;21.44;44.96
63395;BME280;49531;-34.520;150.798;2023-05-02T04:18:41;100409.34;;;21.49;44.89
63395;BME280;49531;-34.520;150.798;2023-05-02T04:21:08;100405.81;;;21.48;44.91
63395;BME280;49531;-34.520;150.798;2023-05-02T04:23:35;100393.88;;;21.39;44.76
63395;BME280;49531;-34.520;150.798;2023-05-02T04:26:03;100425.94;;;21.52;44.65
63395;BME280;49531;-34.520;150.798;2023-05-02T04:28:30;100407.72;;;21.48;44.41
63395;BME280;49531;-34.520;150.798;2023-05-02T04:30:57;100426.75;;;21.53;44.29
63395;BME280;49531;-34.520;150.798;2023-05-02T04:33:24;100396.59;;;21.34;44.48
63395;BME280;49531;-34.520;150.798;2023-05-02T04:35:52;100418.59;;;21.48;44.41
63395;BME280;49531;-34.520;150.798;2023-05-02T04:38:19;100417.22;;;21.50;44.72
63395;BME280;49531;-34.520;150.798;2023-05-02T04:40:48;100412.63;;;21.51;44.54
63395;BME280;49531;-34.520;150.798;2023-05-02T04:43:16;100417.22;;;21.50;44.49
63395;BME280;49531;-34.520;150.798;2023-05-02T04:45:43;100424.56;;;21.55;44.33
63395;BME280;49531;-34.520;150.798;2023-05-02T04:48:10;100425.38;;;21.50;44.46
63395;BME280;49531;-34.520;150.798;2023-05-02T04:50:38;100426.19;;;21.46;44.35
63395;BME280;49531;-34.520;150.798;2023-05-02T04:53:05;100430.53;;;21.52;44.55
63395;BME280;49531;-34.520;150.798;2023-05-02T04:55:32;100427.56;;;21.53;44.38
63395;BME280;49531;-34.520;150.798;2023-05-02T04:57:59;100419.41;;;21.43;44.20
63395;BME280;49531;-34.520;150.798;2023-05-02T05:00:26;100438.94;;;21.60;44.40
63395;BME280;49531;-34.520;150.798;2023-05-02T05:02:54;100430.53;;;21.57;44.37
63395;BME280;49531;-34.520;150.798;2023-05-02T05:05:22;100421.84;;;21.50;44.28
63395;BME280;49531;-34.520;150.798;2023-05-02T05:07:49;100436.78;;;21.57;44.38
63395;BME280;49531;-34.520;150.798;2023-05-02T05:10:17;100428.09;;;21.55;44.37
63395;BME280;49531;-34.520;150.798;2023-05-02T05:12:45;100440.88;;;21.55;44.46
63395;BME280;49531;-34.520;150.798;2023-05-02T05:15:12;100439.25;;;21.54;44.33
63395;BME280;49531;-34.520;150.798;2023-05-02T05:17:39;100431.88;;;21.59;44.38
63395;BME280;49531;-34.520;150.798;2023-05-02T05:20:07;100424.03;;;21.48;44.73
63395;BME280;49531;-34.520;150.798;2023-05-02T05:22:39;100421.31;;;21.58;44.73
63395;BME280;49531;-34.520;150.798;2023-05-02T05:25:08;100405.00;;;21.53;44.69
63395;BME280;49531;-34.520;150.798;2023-05-02T05:27:36;100406.09;;;21.52;44.56
63395;BME280;49531;-34.520;150.798;2023-05-02T05:30:05;100416.91;;;21.62;44.55
63395;BME280;49531;-34.520;150.798;2023-05-02T05:32:34;100424.53;;;21.60;44.61
63395;BME280;49531;-34.520;150.798;2023-05-02T05:35:01;100430.50;;;21.62;44.62
63395;BME280;49531;-34.520;150.798;2023-05-02T05:37:30;100428.06;;;21.60;44.55
63395;BME280;49531;-34.520;150.798;2023-05-02T05:39:57;100419.09;;;21.60;44.22
63395;BME280;49531;-34.520;150.798;2023-05-02T05:42:24;100410.72;;;21.46;44.11
63395;BME280;49531;-34.520;150.798;2023-05-02T05:44:52;100434.31;;;21.61;43.96
63395;BME280;49531;-34.520;150.798;2023-05-02T05:47:19;100416.94;;;21.57;43.77
63395;BME280;49531;-34.520;150.798;2023-05-02T05:49:52;100424.84;;;21.48;44.15
63395;BME280;49531;-34.520;150.798;2023-05-02T05:52:19;100417.50;;;21.44;44.13
63395;BME280;49531;-34.520;150.798;2023-05-02T05:54:47;100439.25;;;21.54;43.71
63395;BME280;49531;-34.520;150.798;2023-05-02T05:57:14;100440.31;;;21.58;43.94
63395;BME280;49531;-34.520;150.798;2023-05-02T05:59:41;100438.97;;;21.55;43.89
63395;BME280;49531;-34.520;150.798;2023-05-02T06:02:08;100405.56;;;21.35;44.03
63395;BME280;49531;-34.520;150.798;2023-05-02T06:04:36;100438.69;;;21.57;43.84
63395;BME280;49531;-34.520;150.798;2023-05-02T06:07:03;100435.97;;;21.52;44.29
63395;BME280;49531;-34.520;150.798;2023-05-02T06:09:31;100438.16;;;21.50;43.86
63395;BME280;49531;-34.520;150.798;2023-05-02T06:12:00;100451.19;;;21.53;44.07
63395;BME280;49531;-34.520;150.798;2023-05-02T06:14:27;100441.41;;;21.52;44.13
63395;BME280;49531;-34.520;150.798;2023-05-02T06:16:57;100445.75;;;21.58;43.63
63395;BME280;49531;-34.520;150.798;2023-05-02T06:19:24;100452.81;;;21.49;43.96
63395;BME280;49531;-34.520;150.798;2023-05-02T06:21:51;100432.72;;;21.35;44.42
63395;BME280;49531;-34.520;150.798;2023-05-02T06:24:19;100438.44;;;21.43;44.32
63395;BME280;49531;-34.520;150.798;2023-05-02T06:26:46;100455.56;;;21.49;44.43
63395;BME280;49531;-34.520;150.798;2023-05-02T06:29:13;100446.59;;;21.38;44.44
63395;BME280;49531;-34.520;150.798;2023-05-02T06:31:40;100441.69;;;21.40;44.33
63395;BME280;49531;-34.520;150.798;2023-05-02T06:34:07;100440.88;;;21.45;44.55
63395;BME280;49531;-34.520;150.798;2023-05-02T06:36:34;100441.16;;;21.48;44.72
63395;BME280;49531;-34.520;150.798;2023-05-02T06:39:02;100450.13;;;21.44;45.00
63395;BME280;49531;-34.520;150.798;2023-05-02T06:41:29;100453.38;;;21.46;44.78
63395;BME280;49531;-34.520;150.798;2023-05-02T06:43:56;100438.97;;;21.35;44.45
63395;BME280;49531;-34.520;150.798;2023-05-02T06:46:26;100458.28;;;21.44;44.76
63395;BME280;49531;-34.520;150.798;2023-05-02T06:48:54;100451.47;;;21.46;44.69
63395;BME280;49531;-34.520;150.798;2023-05-02T06:51:21;100429.47;;;21.33;44.65
63395;BME280;49531;-34.520;150.798;2023-05-02T06:53:48;100454.72;;;21.43;44.21
63395;BME280;49531;-34.520;150.798;2023-05-02T06:56:15;100462.63;;;21.45;44.42
63395;BME280;49531;-34.520;150.798;2023-05-02T06:58:42;100462.34;;;21.41;44.61
63395;BME280;49531;-34.520;150.798;2023-05-02T07:01:09;100462.59;;;21.35;44.69
63395;BME280;49531;-34.520;150.798;2023-05-02T07:03:40;100447.66;;;21.37;44.61
63395;BME280;49531;-34.520;150.798;2023-05-02T07:06:08;100464.50;;;21.39;44.21
63395;BME280;49531;-34.520;150.798;2023-05-02T07:08:35;100459.91;;;21.35;43.80
63395;BME280;49531;-34.520;150.798;2023-05-02T07:11:03;100467.78;;;21.36;43.65
63395;BME280;49531;-34.520;150.798;2023-05-02T07:13:30;100458.25;;;21.28;43.45
63395;BME280;49531;-34.520;150.798;2023-05-02T07:15:58;100469.94;;;21.34;43.36
63395;BME280;49531;-34.520;150.798;2023-05-02T07:18:25;100475.91;;;21.31;43.61
63395;BME280;49531;-34.520;150.798;2023-05-02T07:20:52;100475.91;;;21.31;43.72
63395;BME280;49531;-34.520;150.798;2023-05-02T07:23:20;100479.47;;;21.37;43.95
63395;BME280;49531;-34.520;150.798;2023-05-02T07:25:47;100473.47;;;21.35;43.57
63395;BME280;49531;-34.520;150.798;2023-05-02T07:28:15;100470.22;;;21.27;43.79
63395;BME280;49531;-34.520;150.798;2023-05-02T07:30:42;100471.84;;;21.23;43.71
63395;BME280;49531;-34.520;150.798;2023-05-02T07:33:09;100494.13;;;21.36;43.78
63395;BME280;49531;-34.520;150.798;2023-05-02T07:35:36;100484.63;;;21.38;43.86
63395;BME280;49531;-34.520;150.798;2023-05-02T07:38:03;100489.25;;;21.38;44.05
63395;BME280;49531;-34.520;150.798;2023-05-02T07:40:30;100496.31;;;21.39;43.88
63395;BME280;49531;-34.520;150.798;2023-05-02T07:43:00;100488.97;;;21.34;41.65
63395;BME280;49531;-34.520;150.798;2023-05-02T07:45:27;100510.97;;;21.43;42.08
63395;BME280;49531;-34.520;150.798;2023-05-02T07:47:55;100495.75;;;21.32;42.25
63395;BME280;49531;-34.520;150.798;2023-05-02T07:50:22;100508.00;;;21.39;42.82
63395;BME280;49531;-34.520;150.798;2023-05-02T07:52:50;100502.25;;;21.25;43.24
63395;BME280;49531;-34.520;150.798;2023-05-02T07:55:17;100531.63;;;21.34;43.09
63395;BME280;49531;-34.520;150.798;2023-05-02T07:57:44;100533.78;;;21.32;43.05
63395;BME280;49531;-34.520;150.798;2023-05-02T08:00:12;100528.34;;;21.26;43.11
63395;BME280;49531;-34.520;150.798;2023-05-02T08:02:40;100523.72;;;21.27;43.11
63395;BME280;49531;-34.520;150.798;2023-05-02T08:05:08;100552.53;;;21.33;42.78
63395;BME280;49531;-34.520;150.798;2023-05-02T08:07:35;100549.28;;;21.31;43.13
63395;BME280;49531;-34.520;150.798;2023-05-02T08:10:04;100562.31;;;21.29;42.52
63395;BME280;49531;-34.520;150.798;2023-05-02T08:12:32;100550.59;;;21.18;43.31
63395;BME280;49531;-34.520;150.798;2023-05-02T08:15:06;100553.31;;;21.18;43.04
63395;BME280;49531;-34.520;150.798;2023-05-02T08:17:34;100554.41;;;21.22;43.32
63395;BME280;49531;-34.520;150.798;2023-05-02T08:20:01;100583.78;;;21.30;43.34
63395;BME280;49531;-34.520;150.798;2023-05-02T08:22:28;100554.97;;;21.24;43.31
63395;BME280;49531;-34.520;150.798;2023-05-02T08:24:55;100578.06;;;21.32;43.38
63395;BME280;49531;-34.520;150.798;2023-05-02T08:27:22;100577.53;;;21.35;43.29
63395;BME280;49531;-34.520;150.798;2023-05-02T08:29:49;100594.13;;;21.39;43.26
63395;BME280;49531;-34.520;150.798;2023-05-02T08:32:17;100584.31;;;21.33;43.21
63395;BME280;49531;-34.520;150.798;2023-05-02T08:34:44;100599.00;;;21.37;43.27
63395;BME280;49531;-34.520;150.798;2023-05-02T08:37:11;100584.84;;;21.29;43.39
63395;BME280;49531;-34.520;150.798;2023-05-02T08:39:38;100608.78;;;21.38;43.02
63395;BME280;49531;-34.520;150.798;2023-05-02T08:42:07;100599.25;;;21.35;42.88
63395;BME280;49531;-34.520;150.798;2023-05-02T08:44:34;100617.22;;;21.41;43.04
63395;BME280;49531;-34.520;150.798;2023-05-02T08:47:04;100615.03;;;21.38;43.15
63395;BME280;49531;-34.520;150.798;2023-05-02T08:49:32;100617.75;;;21.38;42.98
63395;BME280;49531;-34.520;150.798;2023-05-02T08:52:01;100604.69;;;21.35;43.14
63395;BME280;49531;-34.520;150.798;2023-05-02T08:54:28;100596.53;;;21.25;43.35
63395;BME280;49531;-34.520;150.798;2023-05-02T08:56:56;100618.84;;;21.37;43.24
63395;BME280;49531;-34.520;150.798;2023-05-02T08:59:24;100594.38;;;21.32;43.29
63395;BME280;49531;-34.520;150.798;2023-05-02T09:01:58;100619.09;;;21.36;43.08
63395;BME280;49531;-34.520;150.798;2023-05-02T09:04:29;100608.22;;;21.30;43.12
63395;BME280;49531;-34.520;150.798;2023-05-02T09:06:58;100630.00;;;21.41;43.07
63395;BME280;49531;-34.520;150.798;2023-05-02T09:09:26;100604.97;;;21.28;43.05
63395;BME280;49531;-34.520;150.798;2023-05-02T09:11:54;100634.31;;;21.37;43.07
63395;BME280;49531;-34.520;150.798;2023-05-02T09:14:21;100597.84;;;21.12;43.36
63395;BME280;49531;-34.520;150.798;2023-05-02T09:16:49;100641.91;;;21.29;43.36
63395;BME280;49531;-34.520;150.798;2023-05-02T09:19:24;100640.00;;;21.30;43.16
63395;BME280;49531;-34.520;150.798;2023-05-02T09:21:52;100644.09;;;21.38;42.96
63395;BME280;49531;-34.520;150.798;2023-05-02T09:24:28;100653.34;;;21.37;42.70
63395;BME280;49531;-34.520;150.798;2023-05-02T09:26:59;100651.69;;;21.30;42.98
63395;BME280;49531;-34.520;150.798;2023-05-02T09:29:28;100650.34;;;21.33;43.02
63395;BME280;49531;-34.520;150.798;2023-05-02T09:32:01;100672.06;;;21.33;42.65
63395;BME280;49531;-34.520;150.798;2023-05-02T09:34:29;100645.44;;;21.30;43.13
63395;BME280;49531;-34.520;150.798;2023-05-02T09:36:57;100657.69;;;21.33;42.94
63395;BME280;49531;-34.520;150.798;2023-05-02T09:39:26;100648.16;;;21.30;42.63
63395;BME280;49531;-34.520;150.798;2023-05-02T09:41:55;100634.03;;;21.28;42.66
63395;BME280;49531;-34.520;150.798;2023-05-02T09:44:24;100645.16;;;21.26;42.70
63395;BME280;49531;-34.520;150.798;2023-05-02T09:47:01;100618.50;;;21.18;42.67
63395;BME280;49531;-34.520;150.798;2023-05-02T09:49:40;100648.97;;;21.30;42.71
63395;BME280;49531;-34.520;150.798;2023-05-02T09:52:12;100639.44;;;21.23;42.77
63395;BME280;49531;-34.520;150.798;2023-05-02T09:54:39;100635.31;;;21.20;42.86
63395;BME280;49531;-34.520;150.798;2023-05-02T09:57:06;100657.06;;;21.20;43.02
63395;BME280;49531;-34.520;150.798;2023-05-02T09:59:36;100639.16;;;21.24;42.90
63395;BME280;49531;-34.520;150.798;2023-05-02T10:02:04;100647.84;;;21.21;42.86
63395;BME280;49531;-34.520;150.798;2023-05-02T10:04:33;100648.38;;;21.18;43.00
63395;BME280;49531;-34.520;150.798;2023-05-02T10:07:01;100665.53;;;21.29;43.02
63395;BME280;49531;-34.520;150.798;2023-05-02T10:09:35;100660.91;;;21.24;43.07
63395;BME280;49531;-34.520;150.798;2023-05-02T10:12:03;100655.41;;;21.19;43.07
63395;BME280;49531;-34.520;150.798;2023-05-02T10:14:34;100657.91;;;21.21;42.92
63395;BME280;49531;-34.520;150.798;2023-05-02T10:17:06;100659.25;;;21.23;43.19
63395;BME280;49531;-34.520;150.798;2023-05-02T10:19:44;100638.03;;;21.15;42.96
63395;BME280;49531;-34.520;150.798;2023-05-02T10:22:18;100634.50;;;21.15;42.88
63395;BME280;49531;-34.520;150.798;2023-05-02T10:24:48;100650.03;;;21.24;42.46
63395;BME280;49531;-34.520;150.798;2023-05-02T10:27:16;100659.25;;;21.23;41.98
63395;BME280;49531;-34.520;150.798;2023-05-02T10:29:43;100656.81;;;21.22;42.29
63395;BME280;49531;-34.520;150.798;2023-05-02T10:32:13;100642.41;;;21.16;42.35
63395;BME280;49531;-34.520;150.798;2023-05-02T10:34:41;100667.09;;;21.20;41.94
63395;BME280;49531;-34.520;150.798;2023-05-02T10:37:08;100644.03;;;21.17;42.03
63395;BME280;49531;-34.520;150.798;2023-05-02T10:39:36;100652.69;;;21.09;42.04
63395;BME280;49531;-34.520;150.798;2023-05-02T10:42:05;100629.00;;;21.00;42.45
63395;BME280;49531;-34.520;150.798;2023-05-02T10:44:35;100653.25;;;21.11;41.91
63395;BME280;49531;-34.520;150.798;2023-05-02T10:47:19;100664.91;;;21.12;41.39
63395;BME280;49531;-34.520;150.798;2023-05-02T10:49:54;100670.63;;;21.10;42.15
63395;BME280;49531;-34.520;150.798;2023-05-02T10:52:31;100671.16;;;21.07;41.52
63395;BME280;49531;-34.520;150.798;2023-05-02T10:55:13;100678.19;;;21.03;42.04
63395;BME280;49531;-34.520;150.798;2023-05-02T11:00:39;100677.63;;;21.01;41.88
63395;BME280;49531;-34.520;150.798;2023-05-02T11:03:06;100695.00;;;21.00;42.23
63395;BME280;49531;-34.520;150.798;2023-05-02T11:06:03;100699.63;;;21.00;42.11
63395;BME280;49531;-34.520;150.798;2023-05-02T11:08:33;100700.44;;;21.00;42.06
63395;BME280;49531;-34.520;150.798;2023-05-02T11:13:51;100703.41;;;20.98;42.38
63395;BME280;49531;-34.520;150.798;2023-05-02T11:16:18;100700.91;;;20.87;42.30
63395;BME280;49531;-34.520;150.798;2023-05-02T11:18:57;100690.56;;;20.84;42.29
63395;BME280;49531;-34.520;150.798;2023-05-02T11:21:27;100698.44;;;20.85;41.58
63395;BME280;49531;-34.520;150.798;2023-05-02T11:26:46;100685.13;;;20.79;42.35
63395;BME280;49531;-34.520;150.798;2023-05-02T11:32:11;100679.38;;;20.70;42.27
63395;BME280;49531;-34.520;150.798;2023-05-02T11:34:40;100705.47;;;20.81;42.17
63395;BME280;49531;-34.520;150.798;2023-05-02T11:37:12;100712.81;;;20.81;42.21
63395;BME280;49531;-34.520;150.798;2023-05-02T11:39:41;100707.13;;;20.82;42.18
63395;BME280;49531;-34.520;150.798;2023-05-02T11:42:08;100700.56;;;20.73;42.40
63395;BME280;49531;-34.520;150.798;2023-05-02T11:44:55;100710.34;;;20.74;42.62
63395;BME280;49531;-34.520;150.798;2023-05-02T11:47:22;100706.22;;;20.67;42.26
63395;BME280;49531;-34.520;150.798;2023-05-02T11:49:50;100714.63;;;20.65;42.33
63395;BME280;49531;-34.520;150.798;2023-05-02T11:52:17;100715.97;;;20.62;42.36
63395;BME280;49531;-34.520;150.798;2023-05-02T11:54:44;100719.22;;;20.64;42.63
63395;BME280;49531;-34.520;150.798;2023-05-02T11:57:11;100722.47;;;20.61;42.55
63395;BME280;49531;-34.520;150.798;2023-05-02T11:59:51;100731.47;;;20.67;42.58
63395;BME280;49531;-34.520;150.798;2023-05-02T12:02:19;100700.13;;;20.49;42.88
63395;BME280;49531;-34.520;150.798;2023-05-02T12:04:47;100701.84;;;20.60;42.85
63395;BME280;49531;-34.520;150.798;2023-05-02T12:07:14;100701.56;;;20.62;42.76
63395;BME280;49531;-34.520;150.798;2023-05-02T12:09:52;100697.47;;;20.59;42.83
63395;BME280;49531;-34.520;150.798;2023-05-02T12:12:21;100688.56;;;20.64;42.88
63395;BME280;49531;-34.520;150.798;2023-05-02T12:14:49;100671.13;;;20.55;43.05
63395;BME280;49531;-34.520;150.798;2023-05-02T12:17:16;100680.13;;;20.60;43.39
63395;BME280;49531;-34.520;150.798;2023-05-02T12:19:44;100677.97;;;20.62;42.93
63395;BME280;49531;-34.520;150.798;2023-05-02T12:22:12;100669.56;;;20.64;43.19
63395;BME280;49531;-34.520;150.798;2023-05-02T12:24:40;100639.84;;;20.42;43.00
63395;BME280;49531;-34.520;150.798;2023-05-02T12:27:12;100658.63;;;20.54;43.14
63395;BME280;49531;-34.520;150.798;2023-05-02T12:29:42;100662.69;;;20.51;43.25
63395;BME280;49531;-34.520;150.798;2023-05-02T12:32:12;100659.69;;;20.48;43.30
63395;BME280;49531;-34.520;150.798;2023-05-02T12:34:40;100659.69;;;20.48;43.46
63395;BME280;49531;-34.520;150.798;2023-05-02T12:37:08;100654.47;;;20.41;43.35
63395;BME280;49531;-34.520;150.798;2023-05-02T12:39:39;100672.16;;;20.49;43.61
63395;BME280;49531;-34.520;150.798;2023-05-02T12:42:09;100661.53;;;20.42;43.29
63395;BME280;49531;-34.520;150.798;2023-05-02T12:44:38;100683.53;;;20.46;43.35
63395;BME280;49531;-34.520;150.798;2023-05-02T12:47:09;100657.13;;;20.31;43.53
63395;BME280;49531;-34.520;150.798;2023-05-02T12:49:52;100671.50;;;20.31;43.62
63395;BME280;49531;-34.520;150.798;2023-05-02T12:52:44;100676.41;;;20.35;43.76
63395;BME280;49531;-34.520;150.798;2023-05-02T12:55:22;100648.94;;;20.26;43.70